UTAT

Details ICAO UTAT (TAZ)
Name DASHOGUZ
Region Tajikistan, Turkmenistan and Uzbekistan
Timezone Asia/Ashgabat (UTC+5.0)
Plans Departing 0
Arriving 1
Stats Elevation 272 ft / 83 m (AMSL)
Location 41.760709° 59.837944°
Runways 2
Magnetic Variation 6.336° E
Sunrise 2017-12-12 03:19:57 UTC / 2017-12-12 08:19:57 Local
Sunset 2017-12-12 12:31:32 UTC / 2017-12-12 17:31:32 Local
Advertisement - Login to hide

Runways

ID Width Length Bearing (true) Bearing (mag) Surface Threshold Offset Overrun Length
09L 138 ft / 42 m 8,845 ft / 2,696 m 90.01° 83.67° Asphalt 0 ft / 0 m 0 ft / 0 m
09R 98 ft / 30 m 4,893 ft / 1,491 m 89.99° 83.65° Asphalt 0 ft / 0 m 0 ft / 0 m
27L 98 ft / 30 m 4,893 ft / 1,491 m 270.01° 263.67° Asphalt 0 ft / 0 m 0 ft / 0 m
27R 138 ft / 42 m 8,845 ft / 2,696 m 270.03° 263.69° Asphalt 0 ft / 0 m 0 ft / 0 m

Map

Weather


0- 5 10 15 20 25 30 35+ Temperature / ° C

Clouds and Precipitation
Forecast for 2017-12-12 18:00 UTC. Updated an hour ago

Ground ~20,000 ft ~40,000 ft Winds

METAR

UTAT 121600Z 09008KT 060V120 9999 OVC011 M06/M08 Q1032 R08/CLRD70 NOSIG

TAF

Not found

Frequencies

Approach 124.70 MHz APP
Approach 131.70 MHz TRANSIT
Warning: Do not use this data for real-world aviation or navigation. No guarantee of current accuracy is given.